N500SF CYVR-CYLW
Flight info
| Callsign | N500SF |
|---|---|
| Flight time | N/A |
| Altitude | 31000 |
| Route | JANEK DCT SEKAB SEKAB5 |
| Aircraft | SF50/L-BDGRSWY/LB2U2 |
Departure
| Time | N/A |
|---|---|
| Airport | Vancouver International Airport (CYVR) |
Arrival
| Time | 2026-04-30 03:44 |
|---|---|
| Airport | Kelowna International Airport (CYLW) |
| Time | Latitude | Longitude | Altitude | Speed | Heading |
|---|---|---|---|---|---|
| 2026-04-30 03:09 | 49.60998 | -122.62144 | 17011 ft | 302 kts | 50° |
| 2026-04-30 03:10 | 49.62307 | -122.59607 | 17010 ft | 298 kts | 50° |
| 2026-04-30 03:10 | 49.63593 | -122.57114 | 17002 ft | 297 kts | 50° |
| 2026-04-30 03:10 | 49.64875 | -122.54620 | 17005 ft | 296 kts | 50° |
| 2026-04-30 03:10 | 49.66156 | -122.52127 | 17000 ft | 296 kts | 50° |
| 2026-04-30 03:11 | 49.67436 | -122.49638 | 17000 ft | 296 kts | 50° |
| 2026-04-30 03:11 | 49.68717 | -122.47138 | 17002 ft | 297 kts | 50° |
| 2026-04-30 03:11 | 49.70019 | -122.44670 | 17001 ft | 296 kts | 49° |
| 2026-04-30 03:11 | 49.71327 | -122.42264 | 16999 ft | 296 kts | 49° |
| 2026-04-30 03:12 | 49.72629 | -122.39802 | 16993 ft | 296 kts | 50° |
| 2026-04-30 03:12 | 49.73919 | -122.37319 | 16997 ft | 296 kts | 50° |
| 2026-04-30 03:12 | 49.75217 | -122.34841 | 16993 ft | 296 kts | 50° |
| 2026-04-30 03:12 | 49.76517 | -122.32372 | 16998 ft | 296 kts | 50° |
| 2026-04-30 03:13 | 49.77818 | -122.29898 | 16993 ft | 296 kts | 50° |
| 2026-04-30 03:13 | 49.79114 | -122.27420 | 16992 ft | 297 kts | 50° |
| 2026-04-30 03:13 | 49.80416 | -122.24936 | 16988 ft | 297 kts | 50° |
| 2026-04-30 03:13 | 49.81715 | -122.22450 | 16984 ft | 297 kts | 49° |
| 2026-04-30 03:14 | 49.83013 | -122.19969 | 16975 ft | 295 kts | 50° |
| 2026-04-30 03:14 | 49.84300 | -122.17505 | 16998 ft | 295 kts | 50° |
| 2026-04-30 03:14 | 49.85589 | -122.15032 | 16995 ft | 295 kts | 50° |
| 2026-04-30 03:14 | 49.86879 | -122.12557 | 16994 ft | 295 kts | 50° |
| 2026-04-30 03:15 | 49.88174 | -122.10069 | 16992 ft | 297 kts | 50° |
| 2026-04-30 03:15 | 49.89470 | -122.07579 | 16985 ft | 297 kts | 50° |
| 2026-04-30 03:15 | 49.90768 | -122.05079 | 16988 ft | 299 kts | 50° |
| 2026-04-30 03:15 | 49.92060 | -122.02594 | 16983 ft | 299 kts | 50° |
| 2026-04-30 03:16 | 49.93350 | -122.00106 | 16984 ft | 293 kts | 50° |
| 2026-04-30 03:16 | 49.94613 | -121.97664 | 16984 ft | 288 kts | 50° |
| 2026-04-30 03:16 | 49.95862 | -121.95251 | 16980 ft | 284 kts | 50° |
| 2026-04-30 03:16 | 49.97093 | -121.92873 | 16977 ft | 281 kts | 50° |
| 2026-04-30 03:17 | 49.98314 | -121.90509 | 16977 ft | 280 kts | 50° |
| 2026-04-30 03:17 | 49.99529 | -121.88150 | 16967 ft | 278 kts | 50° |
| 2026-04-30 03:17 | 50.00734 | -121.85805 | 16972 ft | 278 kts | 50° |
| 2026-04-30 03:17 | 50.01946 | -121.83465 | 16964 ft | 278 kts | 50° |
| 2026-04-30 03:18 | 50.03151 | -121.81126 | 16964 ft | 277 kts | 50° |
| 2026-04-30 03:18 | 50.04351 | -121.78791 | 16966 ft | 276 kts | 50° |
| 2026-04-30 03:18 | 50.05556 | -121.76447 | 16962 ft | 277 kts | 50° |
| 2026-04-30 03:18 | 50.06759 | -121.74102 | 16960 ft | 277 kts | 50° |
| 2026-04-30 03:19 | 50.07865 | -121.71642 | 16953 ft | 279 kts | 60° |
| 2026-04-30 03:19 | 50.08569 | -121.68794 | 16953 ft | 286 kts | 73° |
| 2026-04-30 03:19 | 50.08818 | -121.65698 | 16951 ft | 292 kts | 87° |
| 2026-04-30 03:19 | 50.08804 | -121.62572 | 16948 ft | 293 kts | 88° |
| 2026-04-30 03:20 | 50.08805 | -121.59393 | 16952 ft | 295 kts | 87° |
| 2026-04-30 03:20 | 50.08813 | -121.56193 | 16955 ft | 296 kts | 87° |
| 2026-04-30 03:20 | 50.08812 | -121.52977 | 16956 ft | 297 kts | 88° |
| 2026-04-30 03:20 | 50.08808 | -121.49773 | 16996 ft | 296 kts | 88° |
| 2026-04-30 03:21 | 50.08805 | -121.46555 | 16994 ft | 297 kts | 88° |
| 2026-04-30 03:21 | 50.08802 | -121.43330 | 16998 ft | 298 kts | 88° |
| 2026-04-30 03:21 | 50.08801 | -121.41197 | 16998 ft | 298 kts | 88° |
| 2026-04-30 03:21 | 50.08794 | -121.37967 | 17001 ft | 298 kts | 88° |
| 2026-04-30 03:22 | 50.08785 | -121.34729 | 17004 ft | 299 kts | 88° |
| 2026-04-30 03:22 | 50.08779 | -121.31486 | 17006 ft | 299 kts | 88° |
| 2026-04-30 03:22 | 50.08771 | -121.28247 | 17001 ft | 299 kts | 88° |
| 2026-04-30 03:22 | 50.08761 | -121.25014 | 17011 ft | 298 kts | 88° |
| 2026-04-30 03:23 | 50.08751 | -121.21777 | 17012 ft | 299 kts | 88° |
| 2026-04-30 03:23 | 50.08742 | -121.18537 | 17016 ft | 300 kts | 88° |
| 2026-04-30 03:23 | 50.08729 | -121.15291 | 17018 ft | 300 kts | 88° |
| 2026-04-30 03:23 | 50.08715 | -121.12038 | 17022 ft | 300 kts | 88° |
| 2026-04-30 03:24 | 50.08701 | -121.08785 | 17025 ft | 301 kts | 88° |
| 2026-04-30 03:24 | 50.08688 | -121.05566 | 17025 ft | 301 kts | 88° |
| 2026-04-30 03:24 | 50.08672 | -121.02310 | 17028 ft | 302 kts | 88° |
| 2026-04-30 03:24 | 50.08656 | -120.99037 | 17025 ft | 302 kts | 88° |
| 2026-04-30 03:25 | 50.08639 | -120.95756 | 16939 ft | 305 kts | 88° |
| 2026-04-30 03:25 | 50.08622 | -120.92426 | 16775 ft | 310 kts | 88° |
| 2026-04-30 03:25 | 50.08601 | -120.89047 | 16582 ft | 314 kts | 88° |
| 2026-04-30 03:25 | 50.08577 | -120.85630 | 16379 ft | 317 kts | 88° |
| 2026-04-30 03:26 | 50.08557 | -120.82176 | 16171 ft | 320 kts | 88° |
| 2026-04-30 03:26 | 50.08535 | -120.78697 | 15963 ft | 322 kts | 89° |
| 2026-04-30 03:26 | 50.08510 | -120.75207 | 15752 ft | 320 kts | 89° |
| 2026-04-30 03:26 | 50.08484 | -120.71755 | 15541 ft | 316 kts | 89° |
| 2026-04-30 03:27 | 50.08459 | -120.68350 | 15338 ft | 313 kts | 89° |
| 2026-04-30 03:27 | 50.08432 | -120.64977 | 15138 ft | 310 kts | 89° |
| 2026-04-30 03:27 | 50.08405 | -120.61629 | 14939 ft | 308 kts | 89° |
| 2026-04-30 03:27 | 50.08376 | -120.58300 | 14737 ft | 307 kts | 89° |
| 2026-04-30 03:28 | 50.08346 | -120.54984 | 14541 ft | 306 kts | 89° |
| 2026-04-30 03:28 | 50.08315 | -120.51725 | 14344 ft | 305 kts | 89° |
| 2026-04-30 03:28 | 50.08287 | -120.48430 | 14141 ft | 304 kts | 89° |
| 2026-04-30 03:28 | 50.08254 | -120.45146 | 13931 ft | 303 kts | 90° |
| 2026-04-30 03:29 | 50.08220 | -120.41862 | 13719 ft | 302 kts | 90° |
| 2026-04-30 03:29 | 50.08187 | -120.38590 | 13491 ft | 302 kts | 90° |
| 2026-04-30 03:29 | 50.08152 | -120.35319 | 13284 ft | 301 kts | 90° |
| 2026-04-30 03:29 | 50.08117 | -120.32065 | 13078 ft | 301 kts | 90° |
| 2026-04-30 03:30 | 50.08080 | -120.28811 | 12876 ft | 300 kts | 90° |
| 2026-04-30 03:30 | 50.08044 | -120.25558 | 12680 ft | 300 kts | 90° |
| 2026-04-30 03:30 | 50.08007 | -120.22312 | 12481 ft | 300 kts | 90° |
| 2026-04-30 03:30 | 50.07968 | -120.19076 | 12287 ft | 299 kts | 90° |
| 2026-04-30 03:31 | 50.07928 | -120.15843 | 12092 ft | 299 kts | 90° |
| 2026-04-30 03:31 | 50.07888 | -120.12609 | 11895 ft | 298 kts | 90° |
| 2026-04-30 03:31 | 50.07848 | -120.09384 | 11697 ft | 298 kts | 90° |
| 2026-04-30 03:31 | 50.07807 | -120.06197 | 11509 ft | 298 kts | 90° |
| 2026-04-30 03:32 | 50.07764 | -120.02973 | 11309 ft | 298 kts | 90° |
| 2026-04-30 03:32 | 50.07719 | -119.99751 | 11115 ft | 297 kts | 91° |
| 2026-04-30 03:32 | 50.07676 | -119.96535 | 10918 ft | 297 kts | 91° |
| 2026-04-30 03:32 | 50.07631 | -119.93326 | 10723 ft | 297 kts | 91° |
| 2026-04-30 03:33 | 50.07585 | -119.90116 | 10528 ft | 296 kts | 91° |
| 2026-04-30 03:33 | 50.07537 | -119.86907 | 10332 ft | 296 kts | 91° |
| 2026-04-30 03:33 | 50.07489 | -119.83700 | 10133 ft | 296 kts | 91° |
| 2026-04-30 03:33 | 50.07424 | -119.80504 | 9923 ft | 295 kts | 94° |
| 2026-04-30 03:34 | 50.06964 | -119.77406 | 9694 ft | 294 kts | 111° |
| 2026-04-30 03:34 | 50.05813 | -119.74809 | 9478 ft | 294 kts | 136° |
| 2026-04-30 03:34 | 50.04061 | -119.73218 | 9263 ft | 292 kts | 160° |
| 2026-04-30 03:34 | 50.02120 | -119.72336 | 9077 ft | 286 kts | 166° |
| 2026-04-30 03:35 | 50.00228 | -119.71618 | 8886 ft | 275 kts | 166° |
| 2026-04-30 03:35 | 49.98407 | -119.70795 | 8692 ft | 270 kts | 162° |
| 2026-04-30 03:35 | 49.96649 | -119.69849 | 8501 ft | 266 kts | 161° |
| 2026-04-30 03:35 | 49.94928 | -119.68958 | 8618 ft | 254 kts | 162° |
| 2026-04-30 03:36 | 49.93275 | -119.68143 | 8759 ft | 246 kts | 162° |
| 2026-04-30 03:36 | 49.91630 | -119.67325 | 8570 ft | 252 kts | 162° |
| 2026-04-30 03:36 | 49.89938 | -119.66461 | 8268 ft | 259 kts | 160° |
| 2026-04-30 03:36 | 49.88371 | -119.65038 | 7996 ft | 263 kts | 140° |
| 2026-04-30 03:37 | 49.87167 | -119.63011 | 7915 ft | 257 kts | 124° |
| 2026-04-30 03:37 | 49.86237 | -119.60815 | 7672 ft | 228 kts | 123° |
| 2026-04-30 03:37 | 49.85413 | -119.58917 | 7422 ft | 199 kts | 124° |
| 2026-04-30 03:37 | 49.84676 | -119.57231 | 7210 ft | 179 kts | 123° |
| 2026-04-30 03:38 | 49.83979 | -119.55626 | 7005 ft | 186 kts | 123° |
| 2026-04-30 03:38 | 49.83233 | -119.53907 | 6767 ft | 198 kts | 123° |
| 2026-04-30 03:38 | 49.82445 | -119.52090 | 6521 ft | 207 kts | 123° |
| 2026-04-30 03:38 | 49.81883 | -119.50015 | 6252 ft | 213 kts | 100° |
| 2026-04-30 03:39 | 49.81870 | -119.47741 | 5986 ft | 212 kts | 79° |
| 2026-04-30 03:39 | 49.82360 | -119.45725 | 5754 ft | 177 kts | 59° |
| 2026-04-30 03:39 | 49.82959 | -119.44309 | 5479 ft | 145 kts | 58° |
| 2026-04-30 03:39 | 49.83500 | -119.43107 | 5169 ft | 138 kts | 49° |
| 2026-04-30 03:40 | 49.84169 | -119.42017 | 4860 ft | 140 kts | 44° |
| 2026-04-30 03:40 | 49.84874 | -119.41018 | 4682 ft | 134 kts | 40° |
| 2026-04-30 03:40 | 49.85596 | -119.40081 | 4382 ft | 137 kts | 39° |
| 2026-04-30 03:40 | 49.86342 | -119.39190 | 4182 ft | 134 kts | 36° |
| 2026-04-30 03:41 | 49.87129 | -119.38403 | 3892 ft | 137 kts | 25° |
| 2026-04-30 03:41 | 49.88038 | -119.37990 | 3560 ft | 135 kts | 13° |
| 2026-04-30 03:41 | 49.88952 | -119.37704 | 3197 ft | 133 kts | 8° |
| 2026-04-30 03:41 | 49.89853 | -119.37487 | 2870 ft | 127 kts | 8° |
| 2026-04-30 03:42 | 49.90714 | -119.37266 | 2549 ft | 116 kts | 7° |
| 2026-04-30 03:42 | 49.91455 | -119.37256 | 2213 ft | 106 kts | 354° |
| 2026-04-30 03:42 | 49.92187 | -119.37332 | 1931 ft | 107 kts | 354° |
| 2026-04-30 03:42 | 49.92914 | -119.37430 | 1768 ft | 104 kts | 354° |
| 2026-04-30 03:43 | 49.93635 | -119.37517 | 1626 ft | 103 kts | 354° |
| 2026-04-30 03:43 | 49.94351 | -119.37612 | 1500 ft | 102 kts | 355° |
| 2026-04-30 03:43 | 49.95045 | -119.37704 | 1428 ft | 92 kts | 354° |
| 2026-04-30 03:43 | 49.95566 | -119.37780 | 1415 ft | 62 kts | 354° |
| 2026-04-30 03:44 | 49.95928 | -119.37828 | 1415 ft | 44 kts | 356° |
| 2026-04-30 03:44 | 49.96195 | -119.37866 | 1414 ft | 34 kts | 355° |
| 2026-04-30 03:44 | 49.96417 | -119.37896 | 1414 ft | 31 kts | 355° |
| 2026-04-30 03:44 | 49.96595 | -119.37935 | 1412 ft | 16 kts | 299° |
| 2026-04-30 03:45 | 49.96582 | -119.38050 | 1413 ft | 10 kts | 190° |
| 2026-04-30 03:45 | 49.96529 | -119.38050 | 1413 ft | 6 kts | 175° |
| 2026-04-30 03:45 | 49.96477 | -119.38037 | 1413 ft | 24 kts | 173° |
| 2026-04-30 03:45 | 49.96196 | -119.37997 | 1414 ft | 41 kts | 176° |
| 2026-04-30 03:46 | 49.95930 | -119.37964 | 1414 ft | 35 kts | 175° |
| 2026-04-30 03:46 | 49.95702 | -119.37931 | 1414 ft | 30 kts | 175° |
| 2026-04-30 03:46 | 49.95507 | -119.37904 | 1419 ft | 26 kts | 174° |
| 2026-04-30 03:46 | 49.95363 | -119.37888 | 1415 ft | 11 kts | 175° |
| 2026-04-30 03:47 | 49.95299 | -119.37880 | 1414 ft | 7 kts | 172° |
| 2026-04-30 03:47 | 49.95240 | -119.37868 | 1413 ft | 12 kts | 173° |
| 2026-04-30 03:47 | 49.95169 | -119.37860 | 1413 ft | 8 kts | 199° |
| 2026-04-30 03:47 | 49.95160 | -119.37929 | 1413 ft | 7 kts | 320° |
| 2026-04-30 03:48 | 49.95219 | -119.37945 | 1413 ft | 11 kts | 354° |
| 2026-04-30 03:48 | 49.95278 | -119.37966 | 1413 ft | 7 kts | 325° |
| 2026-04-30 03:48 | 49.95308 | -119.37998 | 1413 ft | 5 kts | 326° |
| 2026-04-30 03:48 | 49.95327 | -119.38028 | 1413 ft | 3 kts | 287° |
| 2026-04-30 03:49 | 49.95328 | -119.38035 | 1413 ft | 0 kts | 288° |